Delair, New Jersey
Current Conditions -  °F | °C
As of 2:54 PM on Sunday 21 Dec 2014 (Local Time) from KPNE Reporting Station
Clear Clear  
Wind Chill: 34°   Ceiling: Unl
Heat Index: 40°   Visibility: 10mi
Dew Point: 21°   Wind: 9mph
Humidity: 47%   Direction: 40°NE
Pressure: 30.31"   Gusts: NA
Location:  39.975°N, 75.0476°W
Report Text: KPNE 211954Z AUTO 04008KT 10SM CLR 04/M06 A3031 RMK AO2 SLP263 T00441061 TSNO
Loading
Personal Weather Stations






























Interactive Weather Map New forecast layout! Learn more

10-Day Weather Forecast

Advertisements
Track Severe Weather on mobile